Time;durP1;ratioP1;P1;durP2;ratioP2;P2;SDS_P1;SDS_P2;PMS_P1;PMS_P2;Temp;Humidity;BMP_temperature;BMP_pressure;BME280_temperature;BME280_humidity;BME280_pressure;Samples;Min_cycle;Max_cycle;Signal;HPM_P1;HPM_P2
2022/07/13 00:00:55;;;;;;;;;;;;;;;26.73;43.26;101867.72;7279138;19;152589;-59
2022/07/13 00:03:22;;;;;;;;;;;;;;;26.73;42.84;101867.72;7279603;19;152996;-59
2022/07/13 00:05:49;;;;;;;;;;;;;;;26.74;42.72;101869.41;7286794;19;151958;-59
2022/07/13 00:08:16;;;;;;;;;;;;;;;26.79;42.74;101872.09;7277289;19;153240;-59
2022/07/13 00:10:43;;;;;;;;;;;;;;;26.82;42.24;101865.75;7280239;19;152499;-59
2022/07/13 00:13:10;;;;;;;;;;;;;;;26.81;42.31;101872.59;7279275;19;152671;-59
2022/07/13 00:15:36;;;;;;;;;;;;;;;26.80;42.07;101868.09;7275886;19;153843;-59
2022/07/13 00:18:03;;;;;;;;;;;;;;;26.73;42.21;101874.25;7280203;19;152761;-59
2022/07/13 00:20:30;;;;;;;;;;;;;;;26.74;42.21;101867.41;7278689;19;153798;-59
2022/07/13 00:22:57;;;;;;;;;;;;;;;26.76;42.08;101864.22;7278762;19;153961;-59
2022/07/13 00:25:24;;;;;;;;;;;;;;;26.79;42.00;101861.59;7275963;19;154027;-58
2022/07/13 00:27:50;;;;;;;;;;;;;;;26.79;41.80;101867.28;7287201;19;153143;-59
2022/07/13 00:30:17;;;;;;;;;;;;;;;26.76;42.29;101872.72;7279406;19;153877;-59
2022/07/13 00:32:44;;;;;;;;;;;;;;;26.72;42.26;101872.56;7276238;19;153951;-60
2022/07/13 00:35:11;;;;;;;;;;;;;;;26.74;41.90;101869.41;7276318;19;154078;-59
2022/07/13 00:37:37;;;;;;;;;;;;;;;26.74;41.62;101875.09;7280709;19;153174;-59
2022/07/13 00:40:04;;;;;;;;;;;;;;;26.68;41.89;101865.88;7275648;19;152001;-59
2022/07/13 00:42:31;;;;;;;;;;;;;;;26.69;42.04;101863.88;7277942;19;153274;-59
2022/07/13 00:44:57;;;;;;;;;;;;;;;26.71;41.70;101864.41;7276175;19;152453;-58
2022/07/13 00:47:27;;;;;;;;;;;;;;;26.74;41.49;101872.25;7276615;19;152218;-59
2022/07/13 00:49:54;;;;;;;;;;;;;;;26.71;41.39;101859.53;7284718;19;153778;-59
2022/07/13 00:52:21;;;;;;;;;;;;;;;26.71;41.69;101859.53;7278660;19;153534;-59
2022/07/13 00:54:48;;;;;;;;;;;;;;;26.73;41.01;101862.06;7275371;19;155336;-59
2022/07/13 00:57:15;;;;;;;;;;;;;;;26.70;41.76;101857.06;7277645;19;153006;-60
2022/07/13 00:59:42;;;;;;;;;;;;;;;26.67;41.73;101855.69;7278418;19;153998;-59
2022/07/13 01:02:09;;;;;;;;;;;;;;;26.70;41.62;101857.06;7274318;19;153774;-59
2022/07/13 01:04:36;;;;;;;;;;;;;;;26.69;41.92;101863.88;7279206;19;151756;-59
2022/07/13 01:07:03;;;;;;;;;;;;;;;26.68;41.66;101856.53;7274876;19;154069;-59
2022/07/13 01:09:30;;;;;;;;;;;;;;;26.64;42.09;101852.69;7275427;19;152763;-59
2022/07/13 01:11:58;;;;;;;;;;;;;;;26.65;42.07;101860.03;7283442;19;152352;-59
2022/07/13 01:14:25;;;;;;;;;;;;;;;26.64;42.26;101853.53;7278139;19;153342;-59
2022/07/13 01:16:54;;;;;;;;;;;;;;;26.64;42.33;101847.03;7283310;19;153537;-59
2022/07/13 01:19:21;;;;;;;;;;;;;;;26.64;42.21;101850.69;7285153;19;152970;-59
2022/07/13 01:21:51;;;;;;;;;;;;;;;26.64;42.20;101847.84;7281070;19;153159;-59
2022/07/13 01:24:17;;;;;;;;;;;;;;;26.66;41.88;101850.38;7283284;19;152689;-59
2022/07/13 01:26:44;;;;;;;;;;;;;;;26.67;41.92;101850.03;7283322;19;153828;-59
2022/07/13 01:29:11;;;;;;;;;;;;;;;26.63;41.68;101854.69;7283674;19;153560;-59
2022/07/13 01:31:39;;;;;;;;;;;;;;;26.69;41.78;101856.22;7283077;19;153147;-59
2022/07/13 01:34:06;;;;;;;;;;;;;;;26.67;41.17;101850.03;7291040;19;156564;-59
2022/07/13 01:36:43;;;;;;;;;;;;;;;26.68;41.44;101845.19;7282170;19;152493;-59
2022/07/13 01:39:12;;;;;;;;;;;;;;;26.68;41.41;101848.03;7281770;19;153184;-59
2022/07/13 01:41:39;;;;;;;;;;;;;;;26.69;41.24;101844.03;7282348;19;152181;-59
2022/07/13 01:44:06;;;;;;;;;;;;;;;26.73;41.04;101843.06;7283075;19;152417;-58
2022/07/13 01:46:39;;;;;;;;;;;;;;;26.67;40.87;101838.69;7282736;19;153218;-59
2022/07/13 01:49:06;;;;;;;;;;;;;;;26.66;40.85;101848.38;7279633;19;154847;-59
2022/07/13 01:51:33;;;;;;;;;;;;;;;26.64;41.05;101856.38;7282832;19;153438;-59
2022/07/13 01:54:01;;;;;;;;;;;;;;;26.69;40.53;101852.53;7287911;19;153844;-62
2022/07/13 01:56:29;;;;;;;;;;;;;;;26.68;40.63;101848.88;7279647;19;153577;-61
2022/07/13 01:58:56;;;;;;;;;;;;;;;26.75;41.05;101854.06;7285544;19;152888;-61
2022/07/13 02:01:22;;;;;;;;;;;;;;;26.73;41.18;101848.72;7281446;19;153576;-60
2022/07/13 02:03:49;;;;;;;;;;;;;;;26.74;40.82;101841.91;7283260;19;152047;-60
2022/07/13 02:06:16;;;;;;;;;;;;;;;26.78;41.24;101840.06;7283117;19;152475;-60
2022/07/13 02:08:43;;;;;;;;;;;;;;;26.76;41.19;101841.53;7281348;19;153576;-60
2022/07/13 02:11:17;;;;;;;;;;;;;;;26.79;41.14;101838.06;7283549;19;152698;-60
2022/07/13 02:13:44;;;;;;;;;;;;;;;26.73;41.10;101833.72;7283572;19;152112;-60
2022/07/13 02:16:12;;;;;;;;;;;;;;;26.81;41.46;101841.41;7289337;19;153961;-60
2022/07/13 02:18:39;;;;;;;;;;;;;;;26.75;41.31;101839.91;7283189;19;154122;-60
2022/07/13 02:21:06;;;;;;;;;;;;;;;26.80;41.75;101836.91;7282032;19;154073;-59
2022/07/13 02:23:32;;;;;;;;;;;;;;;26.74;41.45;101839.06;7281140;19;152125;-60
2022/07/13 02:25:59;;;;;;;;;;;;;;;26.75;42.33;101840.75;7280895;19;153416;-60
2022/07/13 02:28:26;;;;;;;;;;;;;;;26.75;41.93;101832.22;7278420;19;154390;-60
2022/07/13 02:30:54;;;;;;;;;;;;;;;26.78;42.17;101834.41;7280095;19;152962;-60
2022/07/13 02:33:22;;;;;;;;;;;;;;;26.83;42.02;101836.25;7283327;19;152831;-60
2022/07/13 02:35:49;;;;;;;;;;;;;;;26.87;42.20;101840.13;7280907;19;154210;-61
2022/07/13 02:38:31;;;;;;;;;;;;;;;26.81;41.83;101830.88;7286227;19;152696;-60
2022/07/13 02:40:59;;;;;;;;;;;;;;;26.84;42.15;101840.75;7281874;19;153321;-60
2022/07/13 02:43:26;;;;;;;;;;;;;;;26.80;42.62;101843.38;7282659;19;151874;-61
2022/07/13 02:45:53;;;;;;;;;;;;;;;26.90;42.59;101848.78;7283138;19;152690;-60
2022/07/13 02:48:27;;;;;;;;;;;;;;;26.82;42.53;101843.91;7279535;19;153484;-60
2022/07/13 02:50:58;;;;;;;;;;;;;;;26.85;42.66;101839.56;7282179;19;151944;-60
2022/07/13 02:53:25;;;;;;;;;;;;;;;26.95;42.61;101844.97;7279722;19;154436;-61
2022/07/13 02:55:52;;;;;;;;;;;;;;;26.85;43.01;101846.09;7282025;19;153721;-60
2022/07/13 02:58:19;;;;;;;;;;;;;;;26.85;42.76;101848.06;7282602;19;153594;-61
2022/07/13 03:00:46;;;;;;;;;;;;;;;26.87;43.02;101852.31;7287886;19;152044;-60
2022/07/13 03:03:13;;;;;;;;;;;;;;;26.84;42.81;101850.09;7282839;19;151865;-60
2022/07/13 03:05:40;;;;;;;;;;;;;;;26.84;42.95;101846.44;7280956;19;153293;-59
2022/07/13 03:08:07;;;;;;;;;;;;;;;26.83;43.06;101842.75;7279199;19;152746;-60
2022/07/13 03:10:36;;;;;;;;;;;;;;;26.83;43.00;101851.25;7280112;19;152126;-60
2022/07/13 03:13:03;;;;;;;;;;;;;;;26.83;43.52;101842.75;7282956;19;151874;-61
2022/07/13 03:15:29;;;;;;;;;;;;;;;26.86;43.60;101833.59;7280139;19;153196;-60
2022/07/13 03:17:56;;;;;;;;;;;;;;;26.85;43.77;101834.75;7282323;19;152080;-61
2022/07/13 03:20:23;;;;;;;;;;;;;;;26.79;43.63;101835.22;7280220;19;152749;-60
2022/07/13 03:22:50;;;;;;;;;;;;;;;26.84;43.74;101840.75;7289464;19;153290;-60
2022/07/13 03:25:17;;;;;;;;;;;;;;;26.79;43.98;101838.91;7276671;19;153392;-61
2022/07/13 03:27:48;;;;;;;;;;;;;;;26.77;43.87;101846.91;7280151;19;154042;-59
2022/07/13 03:30:14;;;;;;;;;;;;;;;26.82;44.03;101846.75;7280502;19;152323;-60
2022/07/13 03:32:42;;;;;;;;;;;;;;;26.82;43.72;101843.06;7280559;19;154159;-60
2022/07/13 03:35:10;;;;;;;;;;;;;;;26.85;44.03;101842.41;7279929;19;153681;-60
2022/07/13 03:37:39;;;;;;;;;;;;;;;26.89;43.74;101840.63;7278889;19;152969;-60
2022/07/13 03:40:06;;;;;;;;;;;;;;;26.92;43.92;101843.63;7278986;19;152490;-61
2022/07/13 03:42:34;;;;;;;;;;;;;;;26.89;43.92;101834.97;7277115;19;153969;-61
2022/07/13 03:45:01;;;;;;;;;;;;;;;26.90;43.46;101843.13;7287360;19;155217;-60
2022/07/13 03:47:32;;;;;;;;;;;;;;;26.92;43.83;101837.13;7280023;19;153846;-61
2022/07/13 03:49:59;;;;;;;;;;;;;;;26.92;43.50;101837.97;7277825;19;152402;-60
2022/07/13 03:52:25;;;;;;;;;;;;;;;26.90;43.71;101834.63;7281273;19;153315;-60
2022/07/13 03:54:52;;;;;;;;;;;;;;;26.92;43.99;101837.97;7275733;19;153894;-60
2022/07/13 03:57:19;;;;;;;;;;;;;;;26.93;44.27;101830.28;7280408;19;152563;-61
2022/07/13 03:59:46;;;;;;;;;;;;;;;26.94;44.47;101832.78;7280480;19;151888;-60
2022/07/13 04:02:14;;;;;;;;;;;;;;;26.92;44.16;101840.81;7275121;19;152939;-62
2022/07/13 04:04:40;;;;;;;;;;;;;;;26.97;44.69;101840.66;7286895;19;153251;-62
2022/07/13 04:07:07;;;;;;;;;;;;;;;26.94;44.47;101840.44;7278103;19;153196;-60
2022/07/13 04:09:34;;;;;;;;;;;;;;;26.93;44.75;101845.31;7278566;19;153113;-61
2022/07/13 04:12:00;;;;;;;;;;;;;;;26.90;44.22;101840.28;7279960;19;153466;-60
2022/07/13 04:14:27;;;;;;;;;;;;;;;26.94;44.81;101846.97;7279167;19;153819;-61
2022/07/13 04:16:54;;;;;;;;;;;;;;;26.92;45.10;101843.63;7279581;19;153075;-60
2022/07/13 04:19:21;;;;;;;;;;;;;;;26.90;44.49;101831.78;7279171;19;152960;-60
2022/07/13 04:21:47;;;;;;;;;;;;;;;26.93;44.88;101844.47;7278053;19;151875;-61
2022/07/13 04:24:20;;;;;;;;;;;;;;;26.95;45.05;101831.63;7278090;19;152705;-60
2022/07/13 04:26:47;;;;;;;;;;;;;;;27.01;45.04;101831.47;7286735;19;154137;-61
2022/07/13 04:29:13;;;;;;;;;;;;;;;26.94;44.73;101841.28;7279466;19;153591;-61
2022/07/13 04:31:40;;;;;;;;;;;;;;;26.85;45.11;101839.56;7279993;19;152046;-61
2022/07/13 04:34:07;;;;;;;;;;;;;;;26.89;44.88;101843.47;7278571;19;153371;-61
2022/07/13 04:36:33;;;;;;;;;;;;;;;26.88;44.61;101850.31;7280285;19;152854;-60
2022/07/13 04:39:00;;;;;;;;;;;;;;;26.92;45.01;101860.66;7274923;19;155009;-60
2022/07/13 04:41:27;;;;;;;;;;;;;;;26.87;44.46;101852.31;7279211;19;153704;-59
2022/07/13 04:43:53;;;;;;;;;;;;;;;26.92;44.74;101860.66;7279710;19;152296;-61
2022/07/13 04:46:20;;;;;;;;;;;;;;;26.83;44.91;101861.75;7279772;19;151794;-60
2022/07/13 04:48:47;;;;;;;;;;;;;;;26.84;44.79;101860.59;7282318;19;153065;-60
2022/07/13 04:51:13;;;;;;;;;;;;;;;26.89;44.95;101866.97;7284002;19;154458;-60
2022/07/13 04:53:40;;;;;;;;;;;;;;;26.79;44.24;101866.44;7281352;19;154542;-61
2022/07/13 04:56:07;;;;;;;;;;;;;;;26.87;44.78;101862.81;7286527;19;154612;-61
2022/07/13 04:58:34;;;;;;;;;;;;;;;26.83;44.50;101864.59;7286671;19;153700;-60
2022/07/13 05:01:07;;;;;;;;;;;;;;;26.79;44.84;101861.59;7284697;19;153968;-61
2022/07/13 05:03:51;;;;;;;;;;;;;;;26.78;44.97;101857.09;7285521;19;152217;-61
2022/07/13 05:06:17;;;;;;;;;;;;;;;26.78;45.15;101856.25;7286329;19;153129;-61
2022/07/13 05:08:44;;;;;;;;;;;;;;;26.77;45.57;101858.25;7279523;19;153270;-61
2022/07/13 05:11:11;;;;;;;;;;;;;;;26.81;45.06;101864.91;7293713;19;152953;-61
2022/07/13 05:13:38;;;;;;;;;;;;;;;26.85;44.97;101860.28;7283919;19;153283;-61
2022/07/13 05:16:04;;;;;;;;;;;;;;;26.87;45.31;101869.31;7283677;19;152329;-61
2022/07/13 05:18:32;;;;;;;;;;;;;;;26.84;44.60;101869.94;7285677;19;153236;-60
2022/07/13 05:20:59;;;;;;;;;;;;;;;26.93;44.85;101867.16;7283656;19;153808;-61
2022/07/13 05:23:26;;;;;;;;;;;;;;;26.90;45.21;101867.81;7283696;19;151889;-60
2022/07/13 05:25:52;;;;;;;;;;;;;;;26.86;44.38;101878.97;7283792;19;152910;-60
2022/07/13 05:28:19;;;;;;;;;;;;;;;26.85;45.42;101882.09;7283024;19;153227;-61
2022/07/13 05:30:46;;;;;;;;;;;;;;;26.83;45.35;101885.28;7285040;19;151712;-61
2022/07/13 05:33:14;;;;;;;;;;;;;;;26.89;45.53;101880.34;7290988;19;153343;-61
2022/07/13 05:35:41;;;;;;;;;;;;;;;26.86;44.85;101889.50;7283429;19;153112;-61
2022/07/13 05:38:08;;;;;;;;;;;;;;;26.86;45.35;101887.50;7280664;19;152290;-61
2022/07/13 05:40:34;;;;;;;;;;;;;;;26.83;45.30;101888.13;7280802;19;153842;-62
2022/07/13 05:43:01;;;;;;;;;;;;;;;26.85;45.62;101893.44;7285553;19;153173;-61
2022/07/13 05:45:29;;;;;;;;;;;;;;;26.84;45.14;101897.47;7283659;19;153753;-61
2022/07/13 05:47:55;;;;;;;;;;;;;;;26.83;45.82;101904.31;7284002;19;154315;-61
2022/07/13 05:50:22;;;;;;;;;;;;;;;26.79;45.08;101901.28;7282460;19;152768;-60
2022/07/13 05:52:49;;;;;;;;;;;;;;;26.83;45.71;101907.97;7283188;19;152596;-60
2022/07/13 05:55:16;;;;;;;;;;;;;;;26.87;45.40;101906.19;7287574;19;152727;-61
2022/07/13 05:57:46;;;;;;;;;;;;;;;26.86;45.46;101903.66;7284044;19;152214;-62
2022/07/13 06:00:14;;;;;;;;;;;;;;;26.86;45.27;101913.00;7279896;19;152358;-61
2022/07/13 06:02:41;;;;;;;;;;;;;;;26.92;45.88;101917.38;7281730;19;152508;-61
2022/07/13 06:05:09;;;;;;;;;;;;;;;26.85;45.08;101908.50;7281831;19;152819;-63
2022/07/13 06:07:40;;;;;;;;;;;;;;;26.83;44.99;101907.16;7282692;19;155274;-62
2022/07/13 06:10:08;;;;;;;;;;;;;;;26.88;45.45;101910.69;7280234;19;152629;-61
2022/07/13 06:12:34;;;;;;;;;;;;;;;26.88;45.23;101915.53;7282496;19;152498;-61
2022/07/13 06:15:01;;;;;;;;;;;;;;;26.90;45.56;101911.19;7289968;19;154263;-61
2022/07/13 06:17:38;;;;;;;;;;;;;;;26.91;45.84;101912.03;7283367;19;153117;-61
2022/07/13 06:20:07;;;;;;;;;;;;;;;26.79;45.38;101917.47;7279840;19;153793;-61
2022/07/13 06:22:34;;;;;;;;;;;;;;;26.81;44.74;101917.97;7283787;19;152578;-61
2022/07/13 06:25:03;;;;;;;;;;;;;;;26.75;44.38;101917.31;7280614;19;152548;-62
2022/07/13 06:27:35;;;;;;;;;;;;;;;26.78;44.06;101918.63;7282118;19;153963;-61
2022/07/13 06:30:07;;;;;;;;;;;;;;;26.73;44.14;101919.63;7282475;19;151965;-61
2022/07/13 06:32:34;;;;;;;;;;;;;;;26.70;44.33;101917.44;7281411;19;152257;-61
2022/07/13 06:35:00;;;;;;;;;;;;;;;26.73;43.86;101908.28;7280201;19;152520;-60
2022/07/13 06:37:27;;;;;;;;;;;;;;;26.68;43.89;101910.41;7291529;19;151850;-60
2022/07/13 06:40:12;;;;;;;;;;;;;;;26.62;44.86;101914.56;7278975;19;153696;-62
2022/07/13 06:42:41;;;;;;;;;;;;;;;26.63;44.19;101905.72;7282410;19;152876;-62
2022/07/13 06:45:08;;;;;;;;;;;;;;;26.61;43.80;101913.72;7282608;19;152891;-62
2022/07/13 06:47:40;;;;;;;;;;;;;;;26.60;42.96;101912.06;7282983;19;153824;-62
2022/07/13 06:50:07;;;;;;;;;;;;;;;26.58;43.19;101903.03;7280867;19;152075;-62
2022/07/13 06:52:34;;;;;;;;;;;;;;;26.50;43.88;101896.16;7282996;19;153950;-63
2022/07/13 06:55:00;;;;;;;;;;;;;;;26.54;43.46;101899.19;7279789;19;152680;-64
2022/07/13 06:57:40;;;;;;;;;;;;;;;26.52;42.72;101901.53;7281789;19;152359;-64
2022/07/13 07:00:17;;;;;;;;;;;;;;;26.41;42.68;101900.13;7289097;19;153557;-64
2022/07/13 07:02:48;;;;;;;;;;;;;;;26.35;43.20;101890.91;7278732;19;152408;-64
2022/07/13 07:05:15;;;;;;;;;;;;;;;26.32;43.19;101902.91;7281468;19;153758;-63
2022/07/13 07:07:44;;;;;;;;;;;;;;;26.36;42.96;101898.25;7281856;19;154687;-64
2022/07/13 07:10:14;;;;;;;;;;;;;;;26.29;43.05;101908.41;7279673;19;152910;-63
2022/07/13 07:12:41;;;;;;;;;;;;;;;26.29;43.50;101909.22;7280128;19;152241;-63
2022/07/13 07:15:08;;;;;;;;;;;;;;;26.24;43.27;101909.38;7279150;19;152532;-63
2022/07/13 07:17:44;;;;;;;;;;;;;;;26.33;42.75;101917.91;7281133;19;153743;-63
2022/07/13 07:20:12;;;;;;;;;;;;;;;26.34;42.72;101919.59;7280149;19;151883;-64
2022/07/13 07:22:39;;;;;;;;;;;;;;;26.26;43.05;101928.84;7288462;19;152724;-63
2022/07/13 07:25:07;;;;;;;;;;;;;;;26.24;43.03;101923.53;7278915;19;153341;-63
2022/07/13 07:27:44;;;;;;;;;;;;;;;26.31;42.53;101920.22;7278661;19;152698;-63
2022/07/13 07:30:11;;;;;;;;;;;;;;;26.28;43.11;101918.88;7279290;19;153842;-64
2022/07/13 07:32:39;;;;;;;;;;;;;;;26.30;43.46;101921.41;7280570;19;153729;-59
2022/07/13 07:35:07;;;;;;;;;;;;;;;26.30;43.21;101913.72;7279906;19;154391;-63
2022/07/13 07:37:40;;;;;;;;;;;;;;;26.33;43.27;101904.59;7279945;19;153742;-64
2022/07/13 07:40:08;;;;;;;;;;;;;;;26.32;42.82;101916.22;7279394;19;152975;-63
2022/07/13 07:42:35;;;;;;;;;;;;;;;26.27;43.27;101907.88;7278228;19;153386;-63
2022/07/13 07:45:03;;;;;;;;;;;;;;;26.27;43.24;101916.38;7288927;19;152588;-63
2022/07/13 07:47:41;;;;;;;;;;;;;;;26.23;43.85;101910.53;7278736;19;152744;-63
2022/07/13 07:50:11;;;;;;;;;;;;;;;26.20;43.16;101905.47;7275365;19;152495;-63
2022/07/13 07:52:38;;;;;;;;;;;;;;;26.23;43.15;101904.84;7277972;19;154362;-62
2022/07/13 07:55:22;;;;;;;;;;;;;;;26.23;43.35;101904.84;7274510;19;154580;-63
2022/07/13 07:57:52;;;;;;;;;;;;;;;26.24;42.84;101912.19;7282026;19;151681;-63
2022/07/13 08:00:19;;;;;;;;;;;;;;;26.27;43.04;101910.69;7280956;19;152846;-59
2022/07/13 08:02:47;;;;;;;;;;;;;;;26.25;42.77;101910.22;7277403;19;154158;-63
2022/07/13 08:05:14;;;;;;;;;;;;;;;26.21;42.61;101906.34;7263155;19;157194;-63
2022/07/13 08:07:48;;;;;;;;;;;;;;;26.18;43.42;101906.94;7274541;19;153636;-63
2022/07/13 08:10:16;;;;;;;;;;;;;;;26.19;42.94;101905.78;7274052;19;152153;-63
2022/07/13 08:12:58;;;;;;;;;;;;;;;26.18;43.17;101912.63;7279528;19;153720;-63
2022/07/13 08:15:25;;;;;;;;;;;;;;;26.15;43.73;101902.78;7275498;19;153974;-64
2022/07/13 08:17:53;;;;;;;;;;;;;;;26.17;43.56;101903.28;7279072;19;154062;-63
2022/07/13 08:20:19;;;;;;;;;;;;;;;26.22;42.85;101900.34;7275166;19;152004;-63
2022/07/13 08:22:48;;;;;;;;;;;;;;;26.21;42.52;101907.16;7277978;19;152928;-63
2022/07/13 08:25:15;;;;;;;;;;;;;;;26.18;43.25;101898.44;7276339;19;153018;-63
2022/07/13 08:27:43;;;;;;;;;;;;;;;26.22;44.15;101903.19;7283225;19;152731;-63
2022/07/13 08:30:11;;;;;;;;;;;;;;;26.23;44.42;101912.50;7276124;19;152659;-63
2022/07/13 08:32:38;;;;;;;;;;;;;;;26.22;43.21;101908.00;7278385;19;153038;-63
2022/07/13 08:40:43;;;;;;;;;;;;;;;26.24;43.26;101908.53;7276510;19;153234;-63
2022/07/13 08:43:09;;;;;;;;;;;;;;;26.21;43.76;101914.84;7277541;19;154264;-63
2022/07/13 08:45:36;;;;;;;;;;;;;;;26.19;43.18;101917.13;7277568;19;153368;-64
2022/07/13 08:48:13;;;;;;;;;;;;;;;26.20;42.96;101904.63;7279488;19;152329;-63
2022/07/13 08:50:41;;;;;;;;;;;;;;;26.22;42.77;101910.84;7279763;19;153677;-63
2022/07/13 08:53:08;;;;;;;;;;;;;;;26.20;42.96;101904.63;7277062;19;153167;-63
2022/07/13 08:55:35;;;;;;;;;;;;;;;26.16;42.46;101910.13;7274965;19;154908;-63
2022/07/13 08:58:02;;;;;;;;;;;;;;;26.16;43.60;101912.13;7279183;19;151593;-63
2022/07/13 09:00:29;;;;;;;;;;;;;;;26.16;43.44;101909.28;7277710;19;153604;-63
2022/07/13 09:02:56;;;;;;;;;;;;;;;26.19;43.43;101900.97;7271759;19;154645;-63
2022/07/13 09:05:25;;;;;;;;;;;;;;;26.18;43.31;101915.44;7271351;19;155993;-63
2022/07/13 09:08:06;;;;;;;;;;;;;;;26.25;42.42;101907.38;7274132;19;153910;-64
2022/07/13 09:10:51;;;;;;;;;;;;;;;26.20;42.75;101908.31;7268433;19;153570;-63
2022/07/13 09:13:38;;;;;;;;;;;;;;;26.20;42.87;101910.31;7283220;19;152313;-63
2022/07/13 09:16:16;;;;;;;;;;;;;;;26.17;43.14;101920.28;7275712;19;152587;-63
2022/07/13 09:18:44;;;;;;;;;;;;;;;26.21;43.29;101929.03;7276846;19;152261;-63
2022/07/13 09:21:11;;;;;;;;;;;;;;;26.22;43.02;101925.00;7276566;19;153566;-63
2022/07/13 09:23:38;;;;;;;;;;;;;;;26.23;42.94;101929.50;7274596;19;153567;-63
2022/07/13 09:26:05;;;;;;;;;;;;;;;26.22;42.88;101931.50;7276341;19;152605;-63
2022/07/13 09:28:44;;;;;;;;;;;;;;;26.26;43.02;101932.53;7275627;19;152845;-63
2022/07/13 09:31:14;;;;;;;;;;;;;;;26.26;43.23;101931.69;7275401;19;152773;-63
2022/07/13 09:33:43;;;;;;;;;;;;;;;26.26;43.53;101931.69;7276518;19;152056;-63
2022/07/13 09:36:12;;;;;;;;;;;;;;;26.28;43.17;101921.72;7284831;19;153386;-63
2022/07/13 09:38:43;;;;;;;;;;;;;;;26.26;43.34;101937.34;7281867;19;151913;-63
2022/07/13 09:41:18;;;;;;;;;;;;;;;26.29;43.03;101936.72;7282196;19;153688;-63
2022/07/13 09:46:51;;;;;;;;;;;;;;;26.31;43.07;101945.72;7283243;19;153584;-63
2022/07/13 09:49:19;;;;;;;;;;;;;;;26.30;42.76;101944.88;7277860;19;153031;-63
2022/07/13 09:51:46;;;;;;;;;;;;;;;26.29;43.01;101937.56;7279686;19;152945;-63
2022/07/13 09:54:13;;;;;;;;;;;;;;;26.32;43.26;101942.59;7281363;19;152749;-63
2022/07/13 09:56:43;;;;;;;;;;;;;;;26.32;43.15;101936.91;7281677;19;153417;-63
2022/07/13 09:59:10;;;;;;;;;;;;;;;26.36;42.85;101934.25;7289834;19;153326;-63
2022/07/13 10:01:37;;;;;;;;;;;;;;;26.34;43.26;101939.44;7281391;19;154259;-63
2022/07/13 10:04:04;;;;;;;;;;;;;;;26.36;43.65;101946.44;7282320;19;153368;-63
2022/07/13 10:06:50;;;;;;;;;;;;;;;26.36;43.34;101942.75;7279287;19;154358;-63
2022/07/13 10:09:27;;;;;;;;;;;;;;;26.39;44.23;101939.28;7276726;19;153112;-63
2022/07/13 10:11:54;;;;;;;;;;;;;;;26.38;43.57;101938.47;7280028;19;155100;-64
2022/07/13 10:14:22;;;;;;;;;;;;;;;26.43;43.66;101940.31;7280381;19;152598;-63
2022/07/13 10:16:52;;;;;;;;;;;;;;;26.42;43.37;101947.16;7282444;19;152992;-63
2022/07/13 10:19:19;;;;;;;;;;;;;;;26.46;43.39;101945.31;7273043;19;155225;-64
2022/07/13 10:21:49;;;;;;;;;;;;;;;26.45;43.54;101950.16;7279581;19;152442;-63
2022/07/13 10:24:20;;;;;;;;;;;;;;;26.51;43.81;101945.19;7278186;19;152231;-63
2022/07/13 10:26:47;;;;;;;;;;;;;;;26.54;43.52;101950.19;7280978;19;154704;-63
2022/07/13 10:29:15;;;;;;;;;;;;;;;26.52;43.36;101955.38;7278298;19;153652;-63
2022/07/13 10:31:43;;;;;;;;;;;;;;;26.52;43.32;101942.03;7276381;19;154116;-63
2022/07/13 10:34:11;;;;;;;;;;;;;;;26.54;43.36;101951.03;7282852;19;151890;-63
2022/07/13 10:36:50;;;;;;;;;;;;;;;26.52;43.37;101950.53;7281295;19;152868;-63
2022/07/13 10:39:27;;;;;;;;;;;;;;;26.51;43.61;101957.38;7278115;19;154976;-63
2022/07/13 10:42:04;;;;;;;;;;;;;;;26.55;43.20;101949.03;7289003;19;152017;-63
2022/07/13 10:44:32;;;;;;;;;;;;;;;26.53;43.31;101952.19;7279039;19;153201;-63
2022/07/13 10:46:59;;;;;;;;;;;;;;;26.56;43.28;101956.41;7279538;19;152080;-63
2022/07/13 10:49:37;;;;;;;;;;;;;;;26.53;43.26;101955.03;7269558;19;153428;-63
2022/07/13 10:52:21;;;;;;;;;;;;;;;26.56;43.25;101959.22;7278179;19;152657;-63
2022/07/13 10:55:02;;;;;;;;;;;;;;;26.57;43.02;101962.91;7275128;19;152261;-63
2022/07/13 10:57:42;;;;;;;;;;;;;;;26.55;43.30;101958.38;7278373;19;152678;-63
2022/07/13 11:00:18;;;;;;;;;;;;;;;26.59;43.12;101967.06;7278970;19;153280;-63
2022/07/13 11:02:48;;;;;;;;;;;;;;;26.56;43.06;101964.91;7280493;19;151961;-63
2022/07/13 11:05:19;;;;;;;;;;;;;;;26.60;43.08;101971.59;7285006;19;153085;-63
2022/07/13 11:07:47;;;;;;;;;;;;;;;26.65;42.96;101967.78;7281576;19;154023;-63
2022/07/13 11:10:20;;;;;;;;;;;;;;;26.71;42.46;101967.28;7276198;19;153573;-63
2022/07/13 11:12:57;;;;;;;;;;;;;;;26.67;42.68;101960.59;7276461;19;154410;-63
2022/07/13 11:15:41;;;;;;;;;;;;;;;26.69;42.47;101957.47;7279306;19;152524;-63
2022/07/13 11:18:24;;;;;;;;;;;;;;;26.67;42.86;101965.44;7280691;19;153289;-63
2022/07/13 11:21:01;;;;;;;;;;;;;;;26.65;43.21;101962.94;7278867;19;153381;-63
2022/07/13 11:26:34;;;;;;;;;;;;;;;26.59;43.07;101957.72;7280357;19;153639;-64
2022/07/13 11:29:16;;;;;;;;;;;;;;;26.58;43.06;101954.06;7285832;19;153210;-63
2022/07/13 11:31:44;;;;;;;;;;;;;;;26.55;43.00;101960.38;7274170;19;152834;-63
2022/07/13 11:34:11;;;;;;;;;;;;;;;26.54;43.17;101961.53;7277195;19;153319;-63
2022/07/13 11:36:40;;;;;;;;;;;;;;;26.53;42.83;101960.69;7279444;19;152812;-64
2022/07/13 11:39:27;;;;;;;;;;;;;;;26.49;42.92;101956.00;7277764;19;153059;-63
2022/07/13 11:41:54;;;;;;;;;;;;;;;26.48;43.36;101954.34;7275735;19;152398;-63
2022/07/13 11:44:25;;;;;;;;;;;;;;;26.47;43.48;101964.00;7280081;19;152413;-63
2022/07/13 11:46:54;;;;;;;;;;;;;;;26.45;43.39;101964.34;7278550;19;152601;-63
2022/07/13 11:49:21;;;;;;;;;;;;;;;26.52;42.97;101949.72;7279277;19;153935;-63
2022/07/13 11:51:48;;;;;;;;;;;;;;;26.58;42.80;101951.22;7282297;19;153531;-63
2022/07/13 11:54:15;;;;;;;;;;;;;;;26.60;43.19;101946.06;7275972;19;153196;-63
2022/07/13 11:56:51;;;;;;;;;;;;;;;26.66;42.90;101935.44;7275766;19;153050;-63
2022/07/13 11:59:34;;;;;;;;;;;;;;;26.68;43.01;101935.94;7279223;19;152663;-63
2022/07/13 12:02:07;;;;;;;;;;;;;;;26.72;42.50;101934.94;7235928;19;154580;-63
2022/07/13 12:04:35;;;;;;;;;;;;;;;26.69;42.51;101934.78;7277875;19;152453;-64
2022/07/13 12:07:13;;;;;;;;;;;;;;;26.66;42.77;101922.09;7280264;19;152986;-63
2022/07/13 12:09:56;;;;;;;;;;;;;;;26.67;42.83;101932.25;7276753;19;153733;-63
2022/07/13 12:12:24;;;;;;;;;;;;;;;26.65;42.84;101936.59;7274076;19;153389;-64
2022/07/13 12:14:52;;;;;;;;;;;;;;;26.66;42.90;101924.09;7283376;19;152472;-63
2022/07/13 12:17:19;;;;;;;;;;;;;;;26.70;42.40;101919.44;7279574;19;152304;-63
2022/07/13 12:19:46;;;;;;;;;;;;;;;26.67;42.67;101917.22;7276058;19;151994;-63
2022/07/13 12:22:13;;;;;;;;;;;;;;;26.72;42.62;101917.09;7274894;19;152656;-63
2022/07/13 12:24:47;;;;;;;;;;;;;;;26.76;42.49;101901.09;7278257;19;152097;-63
2022/07/13 12:27:22;;;;;;;;;;;;;;;26.81;42.17;101915.13;7277994;19;153292;-63
2022/07/13 12:30:08;;;;;;;;;;;;;;;26.79;42.31;101917.47;7276629;19;153838;-63
2022/07/13 12:32:53;;;;;;;;;;;;;;;26.79;42.24;101912.63;7274365;19;151906;-63
2022/07/13 12:35:20;;;;;;;;;;;;;;;26.74;42.27;101915.63;7283057;19;152849;-64
2022/07/13 12:37:50;;;;;;;;;;;;;;;26.72;42.36;101906.59;7279773;19;154939;-64
2022/07/13 12:40:35;;;;;;;;;;;;;;;26.73;42.37;101908.28;7275328;19;153467;-63
2022/07/13 12:43:03;;;;;;;;;;;;;;;26.75;42.54;101905.97;7277676;19;154193;-64
2022/07/13 12:45:33;;;;;;;;;;;;;;;26.83;42.34;101907.16;7276827;19;152570;-63
2022/07/13 12:48:11;;;;;;;;;;;;;;;26.87;41.59;101906.19;7279067;19;152981;-63
2022/07/13 12:50:38;;;;;;;;;;;;;;;26.85;41.75;101904.78;7273044;19;152730;-63